This is the latest recevied weather packets stored in our database for station/object IW2LSY-11. If no packets are shown the sender has not sent any weather packets the latest 10 day(s).
| Time | Temp. | Humidity | Pressure | Rain* | Wind** | Luminosity | Snow |
|---|---|---|---|---|---|---|---|
| 1777691408 | 8.89° C | 82% | 1027.1 hPa | - | - | 451 W/m² | - |
| 1777690808 | 8.33° C | 85% | 1027.2 hPa | - | - | 451 W/m² | - |
| 1777690209 | 8.33° C | 84% | 1027.2 hPa | - | - | 451 W/m² | - |
| 1777689609 | 8.89° C | 82% | 1027.2 hPa | - | - | 453 W/m² | - |
| 1777689010 | 9.44° C | 77% | 1027.1 hPa | - | - | 453 W/m² | - |
| 1777688410 | 9.44° C | 78% | 1027.1 hPa | - | - | 453 W/m² | - |
| 1777687811 | 9.44° C | 78% | 1027 hPa | - | - | 453 W/m² | - |
| 1777687211 | 9.44° C | 78% | 1027.1 hPa | - | - | 454 W/m² | - |
| 1777686611 | 10° C | 77% | 1027.2 hPa | - | - | 455 W/m² | - |
| 1777686011 | 10° C | 76% | 1027.1 hPa | - | - | 455 W/m² | - |
| 1777685412 | 9.44° C | 78% | 1027.1 hPa | - | - | 456 W/m² | - |
| 1777684811 | 10° C | 77% | 1027.1 hPa | - | - | 456 W/m² | - |
| 1777684212 | 10.56° C | 74% | 1027 hPa | - | - | 456 W/m² | - |
| 1777683613 | 10° C | 77% | 1027 hPa | - | - | 456 W/m² | - |
| 1777683013 | 10° C | 76% | 1027 hPa | - | - | 457 W/m² | - |
| 1777682413 | 10.56° C | 75% | 1027 hPa | - | - | 457 W/m² | - |
| 1777681814 | 9.44° C | 79% | 1027.2 hPa | - | - | 458 W/m² | - |
| 1777681214 | 10.56° C | 74% | 1027.1 hPa | - | - | 458 W/m² | - |
| 1777680612 | 10.56° C | 75% | 1027.1 hPa | - | - | 459 W/m² | - |
| 1777680012 | 10.56° C | 75% | 1027.1 hPa | - | - | 459 W/m² | - |
| 1777679413 | 10.56° C | 74% | 1027.1 hPa | - | - | 460 W/m² | - |
| 1777678813 | 10.56° C | 75% | 1027.1 hPa | - | - | 460 W/m² | - |
| 1777678213 | 10.56° C | 74% | 1027.1 hPa | - | - | 461 W/m² | - |
| 1777677614 | 11.11° C | 70% | 1027.1 hPa | - | - | 461 W/m² | - |
| 1777677014 | 11.67° C | 69% | 1027.1 hPa | - | - | 461 W/m² | - |
* Rain since midnight (hover to see other rain measurements)
** Current wind speed in m/s (hover to see current wind gust speed)